Resolve — WDD7117 — position and weather

sailwx.info

Track history (hours):
 
Tides and Currents Weather Stations Pressure Air Temp Water Temp Dewpoint Dewpoint Depression Visibility Wind Speed Wind Dir Waves Ship Positions

Resolve

Owner: Intrepid Ship Management, jacksonville, FL. More information available from US FCC via Universal Licensing System and Coast Guard Vessel Documentation Center.

Last reported at 2017-Dec-18 00:31 UTC. Time now 2017-Dec-18 20:26 UTC.
Position N 29°23' W 094°52'.

Length 209 m; draft 6.7 m.

Type: Towing. MMSI: 367336000.

Date/timePositionNaut miles runAvg speedWind from/ knotsBaromVisibWave heightAir tempDewpointWater temp
2017-Dec-18 00:31N 29°23' W 094°52'0 5.9
2017-Dec-18 00:29N 29°23' W 094°52'17611.1
2017-Dec-17 08:37N 27°42' W 092°08'211.6
2017-Dec-17 08:26N 27°41' W 092°06'511.5
2017-Dec-17 07:59N 27°39' W 092°01'611.7
2017-Dec-17 07:28N 27°37' W 091°54'611.9
2017-Dec-17 06:59N 27°34' W 091°49'2111.9
2017-Dec-17 05:13N 27°26' W 091°27'312.0
2017-Dec-17 05:00N 27°25' W 091°24'612.1
2017-Dec-17 04:30N 27°22' W 091°18'611.9
2017-Dec-17 03:59N 27°20' W 091°12'612.3
2017-Dec-17 03:30N 27°17' W 091°06'612.1
2017-Dec-17 03:00N 27°15' W 090°59'612.0
2017-Dec-17 02:29N 27°13' W 090°53'612.1
2017-Dec-17 01:59N 27°10' W 090°47'612.3
2017-Dec-17 01:30N 27°08' W 090°41'612.4
2017-Dec-17 01:00N 27°06' W 090°34'612.5
2017-Dec-17 00:29N 27°03' W 090°27'612.1
2017-Dec-16 23:59N 27°01' W 090°21'  
2017-Dec-14 17:50N 25°18' W 080°04'4 9.9
2017-Dec-14 17:25N 25°22' W 080°02'410.1
2017-Dec-14 17:00N 25°26' W 080°02'5 9.9
2017-Dec-14 16:30N 25°31' W 080°02'510.2
2017-Dec-14 16:00N 25°36' W 080°01'1010.2
2017-Dec-14 15:00N 25°46' W 080°01'510.0
2017-Dec-14 14:30N 25°51' W 080°00'510.2
2017-Dec-14 14:00N 25°56' W 079°60'510.5
2017-Dec-14 13:30N 26°01' W 079°59'510.1
2017-Dec-14 13:00N 26°06' W 079°58'5 9.9
2017-Dec-14 12:30N 26°11' W 079°58'510.5
2017-Dec-14 12:00N 26°16' W 079°58'510.5
2017-Dec-14 11:30N 26°21' W 079°58'510.9
2017-Dec-14 11:00N 26°27' W 079°57'510.7
2017-Dec-14 10:30N 26°32' W 079°57'510.7
2017-Dec-14 10:00N 26°38' W 079°57'510.9
2017-Dec-14 09:30N 26°43' W 079°56'510.4
2017-Dec-14 09:00N 26°48' W 079°56'510.3
2017-Dec-14 08:30N 26°53' W 079°57'510.1
2017-Dec-14 08:00N 26°58' W 079°58'510.1
2017-Dec-14 07:30N 27°03' W 079°59'510.5
2017-Dec-14 07:00N 27°08' W 080°00'811.0
2017-Dec-14 06:16N 27°16' W 080°01'411.3
2017-Dec-14 05:56N 27°20' W 080°02'42510.2
2017-Dec-12 12:14N 34°11' W 077°57'1 5.2
2017-Dec-12 12:00N 34°12' W 077°57'  
Track history (hours):
 
Tides and Currents Weather Stations Pressure Air Temp Water Temp Dewpoint Dewpoint Depression Visibility Wind Speed Wind Dir Waves Ship Positions

Resolve

Owner: Intrepid Ship Management, jacksonville, FL. More information available from US FCC via Universal Licensing System and Coast Guard Vessel Documentation Center.

Last reported at 2017-Dec-18 00:31 UTC. Time now 2017-Dec-18 20:26 UTC.
Position N 29°23' W 094°52'.

Length 209 m; draft 6.7 m.

Type: Towing. MMSI: 367336000.

Date/timePositionNaut miles runAvg speedWind from/ knotsBaromVisibWave heightAir tempDewpointWater temp
2017-Dec-18 00:31N 29°23' W 094°52'0 5.9
2017-Dec-18 00:29N 29°23' W 094°52'17611.1
2017-Dec-17 08:37N 27°42' W 092°08'211.6
2017-Dec-17 08:26N 27°41' W 092°06'511.5
2017-Dec-17 07:59N 27°39' W 092°01'611.7
2017-Dec-17 07:28N 27°37' W 091°54'611.9
2017-Dec-17 06:59N 27°34' W 091°49'2111.9
2017-Dec-17 05:13N 27°26' W 091°27'312.0
2017-Dec-17 05:00N 27°25' W 091°24'612.1
2017-Dec-17 04:30N 27°22' W 091°18'611.9
2017-Dec-17 03:59N 27°20' W 091°12'612.3
2017-Dec-17 03:30N 27°17' W 091°06'612.1
2017-Dec-17 03:00N 27°15' W 090°59'612.0
2017-Dec-17 02:29N 27°13' W 090°53'612.1
2017-Dec-17 01:59N 27°10' W 090°47'612.3
2017-Dec-17 01:30N 27°08' W 090°41'612.4
2017-Dec-17 01:00N 27°06' W 090°34'612.5
2017-Dec-17 00:29N 27°03' W 090°27'612.1
2017-Dec-16 23:59N 27°01' W 090°21'  
2017-Dec-14 17:50N 25°18' W 080°04'4 9.9
2017-Dec-14 17:25N 25°22' W 080°02'410.1
2017-Dec-14 17:00N 25°26' W 080°02'5 9.9
2017-Dec-14 16:30N 25°31' W 080°02'510.2
2017-Dec-14 16:00N 25°36' W 080°01'1010.2
2017-Dec-14 15:00N 25°46' W 080°01'510.0
2017-Dec-14 14:30N 25°51' W 080°00'510.2
2017-Dec-14 14:00N 25°56' W 079°60'510.5
2017-Dec-14 13:30N 26°01' W 079°59'510.1
2017-Dec-14 13:00N 26°06' W 079°58'5 9.9
2017-Dec-14 12:30N 26°11' W 079°58'510.5
2017-Dec-14 12:00N 26°16' W 079°58'510.5
2017-Dec-14 11:30N 26°21' W 079°58'510.9
2017-Dec-14 11:00N 26°27' W 079°57'510.7
2017-Dec-14 10:30N 26°32' W 079°57'510.7
2017-Dec-14 10:00N 26°38' W 079°57'510.9
2017-Dec-14 09:30N 26°43' W 079°56'510.4
2017-Dec-14 09:00N 26°48' W 079°56'510.3
2017-Dec-14 08:30N 26°53' W 079°57'510.1
2017-Dec-14 08:00N 26°58' W 079°58'510.1
2017-Dec-14 07:30N 27°03' W 079°59'510.5
2017-Dec-14 07:00N 27°08' W 080°00'811.0
2017-Dec-14 06:16N 27°16' W 080°01'411.3
2017-Dec-14 05:56N 27°20' W 080°02'42510.2
2017-Dec-12 12:14N 34°11' W 077°57'1 5.2
2017-Dec-12 12:00N 34°12' W 077°57'  

Dump ship's entire track history